sensor_id;sensor_type;location;lat;lon;timestamp;temperature;humidity
25918;DHT22;13899;51.174;4.456;2022-08-21T00:01:13;18.60;99.90
25918;DHT22;13899;51.174;4.456;2022-08-21T00:03:40;18.50;99.90
25918;DHT22;13899;51.174;4.456;2022-08-21T00:06:06;18.80;99.90
25918;DHT22;13899;51.174;4.456;2022-08-21T00:08:31;18.90;99.90
25918;DHT22;13899;51.174;4.456;2022-08-21T00:10:57;18.90;99.90
25918;DHT22;13899;51.174;4.456;2022-08-21T00:13:23;18.90;99.90
25918;DHT22;13899;51.174;4.456;2022-08-21T00:15:49;18.80;99.90
25918;DHT22;13899;51.174;4.456;2022-08-21T00:18:15;18.80;99.90
25918;DHT22;13899;51.174;4.456;2022-08-21T00:20:43;18.60;99.90
25918;DHT22;13899;51.174;4.456;2022-08-21T00:23:10;18.60;99.90
25918;DHT22;13899;51.174;4.456;2022-08-21T00:25:36;18.80;99.90
25918;DHT22;13899;51.174;4.456;2022-08-21T00:28:02;19.00;99.90
25918;DHT22;13899;51.174;4.456;2022-08-21T00:30:29;18.80;99.90
25918;DHT22;13899;51.174;4.456;2022-08-21T00:32:56;18.80;99.90
25918;DHT22;13899;51.174;4.456;2022-08-21T00:35:26;18.40;99.90
25918;DHT22;13899;51.174;4.456;2022-08-21T00:37:52;18.30;99.90
25918;DHT22;13899;51.174;4.456;2022-08-21T00:40:23;18.20;99.90
25918;DHT22;13899;51.174;4.456;2022-08-21T00:42:49;18.40;99.90
25918;DHT22;13899;51.174;4.456;2022-08-21T00:45:15;18.50;99.90
25918;DHT22;13899;51.174;4.456;2022-08-21T00:47:41;18.70;99.90
25918;DHT22;13899;51.174;4.456;2022-08-21T00:50:09;18.50;99.90
25918;DHT22;13899;51.174;4.456;2022-08-21T00:52:36;18.30;99.90
25918;DHT22;13899;51.174;4.456;2022-08-21T00:55:05;18.40;99.90
25918;DHT22;13899;51.174;4.456;2022-08-21T00:57:36;18.50;99.90
25918;DHT22;13899;51.174;4.456;2022-08-21T01:00:05;18.60;99.90
25918;DHT22;13899;51.174;4.456;2022-08-21T01:02:31;18.60;99.90
25918;DHT22;13899;51.174;4.456;2022-08-21T01:04:57;18.40;99.90
25918;DHT22;13899;51.174;4.456;2022-08-21T01:07:22;17.80;99.90
25918;DHT22;13899;51.174;4.456;2022-08-21T01:09:48;17.40;99.90
25918;DHT22;13899;51.174;4.456;2022-08-21T01:12:15;17.50;99.90
25918;DHT22;13899;51.174;4.456;2022-08-21T01:14:41;17.50;99.90
25918;DHT22;13899;51.174;4.456;2022-08-21T01:17:08;17.60;99.90
25918;DHT22;13899;51.174;4.456;2022-08-21T01:19:35;17.20;99.90
25918;DHT22;13899;51.174;4.456;2022-08-21T01:22:01;17.30;99.90
25918;DHT22;13899;51.174;4.456;2022-08-21T01:24:27;17.50;99.90
25918;DHT22;13899;51.174;4.456;2022-08-21T01:26:53;17.30;99.90
25918;DHT22;13899;51.174;4.456;2022-08-21T01:29:57;17.20;99.90
25918;DHT22;13899;51.174;4.456;2022-08-21T01:32:24;16.90;99.90
25918;DHT22;13899;51.174;4.456;2022-08-21T01:34:51;17.00;99.90
25918;DHT22;13899;51.174;4.456;2022-08-21T01:37:18;16.90;99.90
25918;DHT22;13899;51.174;4.456;2022-08-21T01:39:45;16.90;99.90
25918;DHT22;13899;51.174;4.456;2022-08-21T01:42:11;17.00;99.90
25918;DHT22;13899;51.174;4.456;2022-08-21T01:44:37;17.10;99.90
25918;DHT22;13899;51.174;4.456;2022-08-21T01:47:06;17.00;99.90
25918;DHT22;13899;51.174;4.456;2022-08-21T01:49:34;17.00;99.90
25918;DHT22;13899;51.174;4.456;2022-08-21T01:51:59;16.70;99.90
25918;DHT22;13899;51.174;4.456;2022-08-21T01:54:25;16.50;99.90
25918;DHT22;13899;51.174;4.456;2022-08-21T01:56:52;16.50;99.90
25918;DHT22;13899;51.174;4.456;2022-08-21T01:59:19;16.40;99.90
25918;DHT22;13899;51.174;4.456;2022-08-21T02:01:45;16.60;99.90
25918;DHT22;13899;51.174;4.456;2022-08-21T02:04:11;16.60;99.90
25918;DHT22;13899;51.174;4.456;2022-08-21T02:06:38;16.70;99.90
25918;DHT22;13899;51.174;4.456;2022-08-21T02:09:05;16.90;99.90
25918;DHT22;13899;51.174;4.456;2022-08-21T02:11:32;17.00;99.90
25918;DHT22;13899;51.174;4.456;2022-08-21T02:13:57;17.20;99.90
25918;DHT22;13899;51.174;4.456;2022-08-21T02:16:23;16.80;99.90
25918;DHT22;13899;51.174;4.456;2022-08-21T02:18:49;16.60;99.90
25918;DHT22;13899;51.174;4.456;2022-08-21T02:21:15;16.40;99.90
25918;DHT22;13899;51.174;4.456;2022-08-21T02:23:40;16.40;99.90
25918;DHT22;13899;51.174;4.456;2022-08-21T02:26:07;16.40;99.90
25918;DHT22;13899;51.174;4.456;2022-08-21T02:28:34;16.40;99.90
25918;DHT22;13899;51.174;4.456;2022-08-21T02:31:01;16.40;99.90
25918;DHT22;13899;51.174;4.456;2022-08-21T02:33:27;16.80;99.90
25918;DHT22;13899;51.174;4.456;2022-08-21T02:35:54;16.90;99.90
25918;DHT22;13899;51.174;4.456;2022-08-21T02:38:23;17.00;99.90
25918;DHT22;13899;51.174;4.456;2022-08-21T02:40:50;17.10;99.90
25918;DHT22;13899;51.174;4.456;2022-08-21T02:43:17;16.90;99.90
25918;DHT22;13899;51.174;4.456;2022-08-21T02:45:44;16.80;99.90
25918;DHT22;13899;51.174;4.456;2022-08-21T02:48:14;16.80;99.90
25918;DHT22;13899;51.174;4.456;2022-08-21T02:50:46;16.50;99.90
25918;DHT22;13899;51.174;4.456;2022-08-21T02:53:13;16.60;99.90
25918;DHT22;13899;51.174;4.456;2022-08-21T02:55:42;16.70;99.90
25918;DHT22;13899;51.174;4.456;2022-08-21T02:58:08;16.80;99.90
25918;DHT22;13899;51.174;4.456;2022-08-21T03:00:35;16.50;99.90
25918;DHT22;13899;51.174;4.456;2022-08-21T03:03:02;16.50;99.90
25918;DHT22;13899;51.174;4.456;2022-08-21T03:05:30;16.60;99.90
25918;DHT22;13899;51.174;4.456;2022-08-21T03:07:57;16.20;99.90
25918;DHT22;13899;51.174;4.456;2022-08-21T03:10:24;15.90;99.90
25918;DHT22;13899;51.174;4.456;2022-08-21T03:12:50;15.90;99.90
25918;DHT22;13899;51.174;4.456;2022-08-21T03:15:19;15.80;99.90
25918;DHT22;13899;51.174;4.456;2022-08-21T03:17:46;15.90;99.90
25918;DHT22;13899;51.174;4.456;2022-08-21T03:20:14;16.00;99.90
25918;DHT22;13899;51.174;4.456;2022-08-21T03:22:41;15.90;99.90
25918;DHT22;13899;51.174;4.456;2022-08-21T03:25:07;16.10;99.90
25918;DHT22;13899;51.174;4.456;2022-08-21T03:27:34;15.90;99.90
25918;DHT22;13899;51.174;4.456;2022-08-21T03:30:00;15.90;99.90
25918;DHT22;13899;51.174;4.456;2022-08-21T03:32:27;16.20;99.90
25918;DHT22;13899;51.174;4.456;2022-08-21T03:34:52;16.10;99.90
25918;DHT22;13899;51.174;4.456;2022-08-21T03:37:18;15.80;99.90
25918;DHT22;13899;51.174;4.456;2022-08-21T03:39:44;15.70;99.90
25918;DHT22;13899;51.174;4.456;2022-08-21T03:42:11;16.00;99.90
25918;DHT22;13899;51.174;4.456;2022-08-21T03:44:38;16.20;99.90
25918;DHT22;13899;51.174;4.456;2022-08-21T03:47:05;16.40;99.90
25918;DHT22;13899;51.174;4.456;2022-08-21T03:49:31;16.60;99.90
25918;DHT22;13899;51.174;4.456;2022-08-21T03:51:56;16.60;99.90
25918;DHT22;13899;51.174;4.456;2022-08-21T03:54:22;16.30;99.90
25918;DHT22;13899;51.174;4.456;2022-08-21T03:56:47;16.00;99.90
25918;DHT22;13899;51.174;4.456;2022-08-21T03:59:13;16.00;99.90
25918;DHT22;13899;51.174;4.456;2022-08-21T04:01:39;15.80;99.90
25918;DHT22;13899;51.174;4.456;2022-08-21T04:04:05;15.70;99.90
25918;DHT22;13899;51.174;4.456;2022-08-21T04:06:31;15.90;99.90
25918;DHT22;13899;51.174;4.456;2022-08-21T04:08:57;15.70;99.90
25918;DHT22;13899;51.174;4.456;2022-08-21T04:11:23;15.70;99.90
25918;DHT22;13899;51.174;4.456;2022-08-21T04:13:49;15.70;99.90
25918;DHT22;13899;51.174;4.456;2022-08-21T04:16:14;15.50;99.90
25918;DHT22;13899;51.174;4.456;2022-08-21T04:18:40;15.40;99.90
25918;DHT22;13899;51.174;4.456;2022-08-21T04:21:08;15.30;99.90
25918;DHT22;13899;51.174;4.456;2022-08-21T04:23:35;15.30;99.90
25918;DHT22;13899;51.174;4.456;2022-08-21T04:26:01;15.50;99.90
25918;DHT22;13899;51.174;4.456;2022-08-21T04:28:27;15.40;99.90
25918;DHT22;13899;51.174;4.456;2022-08-21T04:30:53;15.30;99.90
25918;DHT22;13899;51.174;4.456;2022-08-21T04:33:20;15.20;99.90
25918;DHT22;13899;51.174;4.456;2022-08-21T04:35:46;15.20;99.90
25918;DHT22;13899;51.174;4.456;2022-08-21T04:38:12;15.30;99.90
25918;DHT22;13899;51.174;4.456;2022-08-21T04:40:37;15.60;99.90
25918;DHT22;13899;51.174;4.456;2022-08-21T04:43:08;15.30;99.90
25918;DHT22;13899;51.174;4.456;2022-08-21T04:45:36;15.30;99.90
25918;DHT22;13899;51.174;4.456;2022-08-21T04:48:04;15.20;99.90
25918;DHT22;13899;51.174;4.456;2022-08-21T04:53:19;15.20;99.90
25918;DHT22;13899;51.174;4.456;2022-08-21T04:55:46;15.10;99.90
25918;DHT22;13899;51.174;4.456;2022-08-21T04:58:16;15.00;99.90
25918;DHT22;13899;51.174;4.456;2022-08-21T05:00:43;14.90;99.90
25918;DHT22;13899;51.174;4.456;2022-08-21T05:03:09;14.80;99.90
25918;DHT22;13899;51.174;4.456;2022-08-21T05:05:37;15.00;99.90
25918;DHT22;13899;51.174;4.456;2022-08-21T05:08:04;15.20;99.90
25918;DHT22;13899;51.174;4.456;2022-08-21T05:10:32;15.30;99.90
25918;DHT22;13899;51.174;4.456;2022-08-21T05:12:58;15.50;99.90
25918;DHT22;13899;51.174;4.456;2022-08-21T05:15:25;15.40;99.90
25918;DHT22;13899;51.174;4.456;2022-08-21T05:17:59;15.20;99.90
25918;DHT22;13899;51.174;4.456;2022-08-21T05:20:25;15.30;99.90
25918;DHT22;13899;51.174;4.456;2022-08-21T05:22:55;15.30;99.90
25918;DHT22;13899;51.174;4.456;2022-08-21T05:25:22;15.40;99.90
25918;DHT22;13899;51.174;4.456;2022-08-21T05:27:52;15.40;99.90
25918;DHT22;13899;51.174;4.456;2022-08-21T05:30:22;15.40;99.90
25918;DHT22;13899;51.174;4.456;2022-08-21T05:32:59;15.30;99.90
25918;DHT22;13899;51.174;4.456;2022-08-21T05:35:26;15.70;99.90
25918;DHT22;13899;51.174;4.456;2022-08-21T05:37:54;15.80;99.90
25918;DHT22;13899;51.174;4.456;2022-08-21T05:40:22;15.80;99.90
25918;DHT22;13899;51.174;4.456;2022-08-21T05:42:54;15.70;99.90
25918;DHT22;13899;51.174;4.456;2022-08-21T05:45:23;15.80;99.90
25918;DHT22;13899;51.174;4.456;2022-08-21T05:47:49;15.60;99.90
25918;DHT22;13899;51.174;4.456;2022-08-21T05:50:14;15.60;99.90
25918;DHT22;13899;51.174;4.456;2022-08-21T05:52:50;15.70;99.90
25918;DHT22;13899;51.174;4.456;2022-08-21T05:55:18;15.90;99.90
25918;DHT22;13899;51.174;4.456;2022-08-21T05:57:51;16.00;99.90
25918;DHT22;13899;51.174;4.456;2022-08-21T06:00:17;16.10;99.90
25918;DHT22;13899;51.174;4.456;2022-08-21T06:02:43;16.10;99.90
25918;DHT22;13899;51.174;4.456;2022-08-21T06:05:18;16.20;99.90
25918;DHT22;13899;51.174;4.456;2022-08-21T06:08:18;16.00;99.90
25918;DHT22;13899;51.174;4.456;2022-08-21T06:10:45;16.30;99.90
25918;DHT22;13899;51.174;4.456;2022-08-21T06:13:14;16.50;99.90
25918;DHT22;13899;51.174;4.456;2022-08-21T06:15:41;16.40;99.90
25918;DHT22;13899;51.174;4.456;2022-08-21T06:18:16;16.50;99.90
25918;DHT22;13899;51.174;4.456;2022-08-21T06:20:49;16.40;99.90
25918;DHT22;13899;51.174;4.456;2022-08-21T06:23:50;16.40;99.90
25918;DHT22;13899;51.174;4.456;2022-08-21T06:26:17;16.70;99.90
25918;DHT22;13899;51.174;4.456;2022-08-21T06:29:10;16.80;99.90
25918;DHT22;13899;51.174;4.456;2022-08-21T06:31:40;17.00;99.90
25918;DHT22;13899;51.174;4.456;2022-08-21T06:34:57;17.00;99.90
25918;DHT22;13899;51.174;4.456;2022-08-21T06:37:36;17.10;99.90
25918;DHT22;13899;51.174;4.456;2022-08-21T06:40:20;17.10;99.90
25918;DHT22;13899;51.174;4.456;2022-08-21T06:42:56;17.40;99.90
25918;DHT22;13899;51.174;4.456;2022-08-21T06:45:32;17.50;99.90
25918;DHT22;13899;51.174;4.456;2022-08-21T06:48:07;17.30;99.90
25918;DHT22;13899;51.174;4.456;2022-08-21T06:50:34;17.50;99.90
25918;DHT22;13899;51.174;4.456;2022-08-21T06:53:09;17.40;99.90
25918;DHT22;13899;51.174;4.456;2022-08-21T06:55:56;17.40;99.90
25918;DHT22;13899;51.174;4.456;2022-08-21T06:58:27;17.30;99.90
25918;DHT22;13899;51.174;4.456;2022-08-21T07:01:05;17.40;99.90
25918;DHT22;13899;51.174;4.456;2022-08-21T07:04:01;17.50;99.90
25918;DHT22;13899;51.174;4.456;2022-08-21T07:06:39;17.80;99.90
25918;DHT22;13899;51.174;4.456;2022-08-21T07:09:22;17.80;99.90
25918;DHT22;13899;51.174;4.456;2022-08-21T07:12:27;18.00;99.90
25918;DHT22;13899;51.174;4.456;2022-08-21T07:15:55;18.20;99.90
25918;DHT22;13899;51.174;4.456;2022-08-21T07:19:01;18.30;99.90
25918;DHT22;13899;51.174;4.456;2022-08-21T07:21:50;18.40;99.90
25918;DHT22;13899;51.174;4.456;2022-08-21T07:24:45;18.40;99.90
25918;DHT22;13899;51.174;4.456;2022-08-21T07:27:57;18.60;99.90
25918;DHT22;13899;51.174;4.456;2022-08-21T07:30:55;18.80;99.90
25918;DHT22;13899;51.174;4.456;2022-08-21T07:33:59;18.90;99.90
25918;DHT22;13899;51.174;4.456;2022-08-21T07:37:17;18.80;99.90
25918;DHT22;13899;51.174;4.456;2022-08-21T07:40:27;18.60;99.90
25918;DHT22;13899;51.174;4.456;2022-08-21T07:43:12;18.80;99.90
25918;DHT22;13899;51.174;4.456;2022-08-21T07:46:03;18.90;99.90
25918;DHT22;13899;51.174;4.456;2022-08-21T07:49:30;19.20;99.90
25918;DHT22;13899;51.174;4.456;2022-08-21T07:53:09;19.40;99.90
25918;DHT22;13899;51.174;4.456;2022-08-21T07:56:31;19.70;99.90
25918;DHT22;13899;51.174;4.456;2022-08-21T08:00:12;19.60;99.90
25918;DHT22;13899;51.174;4.456;2022-08-21T08:02:59;19.80;99.90
25918;DHT22;13899;51.174;4.456;2022-08-21T08:09:04;20.30;99.90
25918;DHT22;13899;51.174;4.456;2022-08-21T08:11:52;20.50;99.90
25918;DHT22;13899;51.174;4.456;2022-08-21T08:17:38;20.40;99.90
25918;DHT22;13899;51.174;4.456;2022-08-21T08:20:24;20.60;99.90
25918;DHT22;13899;51.174;4.456;2022-08-21T08:23:23;20.60;99.90
25918;DHT22;13899;51.174;4.456;2022-08-21T08:26:38;20.70;99.90
25918;DHT22;13899;51.174;4.456;2022-08-21T08:29:49;20.70;99.90
25918;DHT22;13899;51.174;4.456;2022-08-21T08:32:34;20.80;99.90
25918;DHT22;13899;51.174;4.456;2022-08-21T08:39:42;21.00;99.90
25918;DHT22;13899;51.174;4.456;2022-08-21T08:42:39;20.70;99.90
25918;DHT22;13899;51.174;4.456;2022-08-21T08:45:36;20.80;99.90
25918;DHT22;13899;51.174;4.456;2022-08-21T08:48:58;20.80;99.90
25918;DHT22;13899;51.174;4.456;2022-08-21T08:53:02;20.70;99.90
25918;DHT22;13899;51.174;4.456;2022-08-21T08:55:56;21.20;99.90
25918;DHT22;13899;51.174;4.456;2022-08-21T08:58:48;21.40;99.90
25918;DHT22;13899;51.174;4.456;2022-08-21T09:02:07;21.90;99.90
25918;DHT22;13899;51.174;4.456;2022-08-21T09:18:35;22.40;99.90
25918;DHT22;13899;51.174;4.456;2022-08-21T09:27:30;23.40;99.90
25918;DHT22;13899;51.174;4.456;2022-08-21T09:30:32;23.50;99.90
25918;DHT22;13899;51.174;4.456;2022-08-21T09:33:40;23.80;99.90
25918;DHT22;13899;51.174;4.456;2022-08-21T09:39:40;25.80;99.90
25918;DHT22;13899;51.174;4.456;2022-08-21T09:46:24;26.90;99.90
25918;DHT22;13899;51.174;4.456;2022-08-21T09:49:34;26.10;99.90
25918;DHT22;13899;51.174;4.456;2022-08-21T09:52:41;25.40;99.90
25918;DHT22;13899;51.174;4.456;2022-08-21T09:59:13;25.10;99.90
25918;DHT22;13899;51.174;4.456;2022-08-21T10:03:17;25.70;99.90
25918;DHT22;13899;51.174;4.456;2022-08-21T10:06:25;25.40;99.90
25918;DHT22;13899;51.174;4.456;2022-08-21T10:09:21;24.40;99.90
25918;DHT22;13899;51.174;4.456;2022-08-21T10:16:32;24.40;99.90
25918;DHT22;13899;51.174;4.456;2022-08-21T10:19:58;23.50;99.90
25918;DHT22;13899;51.174;4.456;2022-08-21T10:25:31;25.30;99.90
25918;DHT22;13899;51.174;4.456;2022-08-21T10:28:32;24.90;99.90
25918;DHT22;13899;51.174;4.456;2022-08-21T10:32:38;24.80;99.90
25918;DHT22;13899;51.174;4.456;2022-08-21T10:35:24;24.90;99.90
25918;DHT22;13899;51.174;4.456;2022-08-21T10:47:52;26.90;99.90
25918;DHT22;13899;51.174;4.456;2022-08-21T10:51:04;27.10;99.90
25918;DHT22;13899;51.174;4.456;2022-08-21T10:54:36;27.60;99.90
25918;DHT22;13899;51.174;4.456;2022-08-21T11:01:03;27.80;99.90
25918;DHT22;13899;51.174;4.456;2022-08-21T11:03:39;28.40;99.90
25918;DHT22;13899;51.174;4.456;2022-08-21T11:07:12;28.50;99.90
25918;DHT22;13899;51.174;4.456;2022-08-21T11:10:19;28.10;99.90
25918;DHT22;13899;51.174;4.456;2022-08-21T11:13:17;28.20;99.90
25918;DHT22;13899;51.174;4.456;2022-08-21T11:22:39;29.20;99.90
25918;DHT22;13899;51.174;4.456;2022-08-21T11:26:07;28.90;99.00
25918;DHT22;13899;51.174;4.456;2022-08-21T11:29:28;30.60;98.60
25918;DHT22;13899;51.174;4.456;2022-08-21T11:32:23;32.20;93.60
25918;DHT22;13899;51.174;4.456;2022-08-21T11:38:34;29.40;94.50
25918;DHT22;13899;51.174;4.456;2022-08-21T11:47:20;31.50;90.10
25918;DHT22;13899;51.174;4.456;2022-08-21T11:50:18;30.90;91.10
25918;DHT22;13899;51.174;4.456;2022-08-21T11:53:38;30.20;93.00
25918;DHT22;13899;51.174;4.456;2022-08-21T11:56:59;30.20;94.00
25918;DHT22;13899;51.174;4.456;2022-08-21T11:59:39;32.50;88.20
25918;DHT22;13899;51.174;4.456;2022-08-21T12:02:43;33.40;80.60
25918;DHT22;13899;51.174;4.456;2022-08-21T12:05:54;34.60;74.30
25918;DHT22;13899;51.174;4.456;2022-08-21T12:12:22;33.10;71.80
25918;DHT22;13899;51.174;4.456;2022-08-21T12:15:50;33.10;74.20
25918;DHT22;13899;51.174;4.456;2022-08-21T12:19:08;32.70;68.20
25918;DHT22;13899;51.174;4.456;2022-08-21T12:25:10;31.80;70.70
25918;DHT22;13899;51.174;4.456;2022-08-21T12:28:02;31.80;71.50
25918;DHT22;13899;51.174;4.456;2022-08-21T12:31:02;32.10;71.90
25918;DHT22;13899;51.174;4.456;2022-08-21T12:33:56;31.70;72.70
25918;DHT22;13899;51.174;4.456;2022-08-21T12:36:33;30.50;76.80
25918;DHT22;13899;51.174;4.456;2022-08-21T12:39:36;30.30;78.80
25918;DHT22;13899;51.174;4.456;2022-08-21T12:42:38;30.00;78.60
25918;DHT22;13899;51.174;4.456;2022-08-21T12:46:03;30.30;80.10
25918;DHT22;13899;51.174;4.456;2022-08-21T12:49:26;30.50;77.80
25918;DHT22;13899;51.174;4.456;2022-08-21T12:52:33;29.80;79.80
25918;DHT22;13899;51.174;4.456;2022-08-21T12:55:51;29.40;81.50
25918;DHT22;13899;51.174;4.456;2022-08-21T12:59:11;29.90;81.10
25918;DHT22;13899;51.174;4.456;2022-08-21T13:02:45;30.00;79.10
25918;DHT22;13899;51.174;4.456;2022-08-21T13:09:49;30.70;75.30
25918;DHT22;13899;51.174;4.456;2022-08-21T13:12:27;30.20;81.00
25918;DHT22;13899;51.174;4.456;2022-08-21T13:15:07;30.10;81.60
25918;DHT22;13899;51.174;4.456;2022-08-21T13:17:40;30.20;75.60
25918;DHT22;13899;51.174;4.456;2022-08-21T13:20:27;29.80;77.40
25918;DHT22;13899;51.174;4.456;2022-08-21T13:23:34;29.50;79.00
25918;DHT22;13899;51.174;4.456;2022-08-21T13:26:29;28.70;82.60
25918;DHT22;13899;51.174;4.456;2022-08-21T13:29:07;29.30;81.60
25918;DHT22;13899;51.174;4.456;2022-08-21T13:32:21;29.70;79.60
25918;DHT22;13899;51.174;4.456;2022-08-21T13:35:23;30.40;78.80
25918;DHT22;13899;51.174;4.456;2022-08-21T13:38:19;30.80;77.60
25918;DHT22;13899;51.174;4.456;2022-08-21T13:41:49;30.50;77.20
25918;DHT22;13899;51.174;4.456;2022-08-21T13:47:22;29.60;79.10
25918;DHT22;13899;51.174;4.456;2022-08-21T13:50:16;29.90;80.40
25918;DHT22;13899;51.174;4.456;2022-08-21T13:57:03;31.40;73.80
25918;DHT22;13899;51.174;4.456;2022-08-21T14:00:14;33.10;68.50
25918;DHT22;13899;51.174;4.456;2022-08-21T14:03:35;33.10;65.50
25918;DHT22;13899;51.174;4.456;2022-08-21T14:06:53;33.00;66.60
25918;DHT22;13899;51.174;4.456;2022-08-21T14:13:28;31.20;68.50
25918;DHT22;13899;51.174;4.456;2022-08-21T14:20:12;30.00;72.30
25918;DHT22;13899;51.174;4.456;2022-08-21T14:23:09;29.90;72.70
25918;DHT22;13899;51.174;4.456;2022-08-21T14:26:20;31.10;71.50
25918;DHT22;13899;51.174;4.456;2022-08-21T14:29:21;32.20;67.50
25918;DHT22;13899;51.174;4.456;2022-08-21T14:32:30;32.80;65.50
25918;DHT22;13899;51.174;4.456;2022-08-21T14:35:38;33.60;63.10
25918;DHT22;13899;51.174;4.456;2022-08-21T14:38:15;33.50;64.20
25918;DHT22;13899;51.174;4.456;2022-08-21T14:40:43;34.30;62.70
25918;DHT22;13899;51.174;4.456;2022-08-21T14:43:09;33.90;61.10
25918;DHT22;13899;51.174;4.456;2022-08-21T14:45:35;34.00;60.90
25918;DHT22;13899;51.174;4.456;2022-08-21T14:48:02;33.50;60.90
25918;DHT22;13899;51.174;4.456;2022-08-21T14:50:28;32.90;62.70
25918;DHT22;13899;51.174;4.456;2022-08-21T14:52:54;32.50;63.30
25918;DHT22;13899;51.174;4.456;2022-08-21T14:55:19;32.10;64.40
25918;DHT22;13899;51.174;4.456;2022-08-21T14:57:48;31.70;66.10
25918;DHT22;13899;51.174;4.456;2022-08-21T15:00:20;31.60;64.90
25918;DHT22;13899;51.174;4.456;2022-08-21T15:02:48;31.50;66.70
25918;DHT22;13899;51.174;4.456;2022-08-21T15:05:14;31.20;67.10
25918;DHT22;13899;51.174;4.456;2022-08-21T15:07:40;31.30;67.00
25918;DHT22;13899;51.174;4.456;2022-08-21T15:10:07;30.30;68.30
25918;DHT22;13899;51.174;4.456;2022-08-21T15:12:33;30.00;68.90
25918;DHT22;13899;51.174;4.456;2022-08-21T15:14:59;30.00;70.50
25918;DHT22;13899;51.174;4.456;2022-08-21T15:17:25;29.90;69.10
25918;DHT22;13899;51.174;4.456;2022-08-21T15:19:51;29.80;70.30
25918;DHT22;13899;51.174;4.456;2022-08-21T15:22:16;29.70;70.10
25918;DHT22;13899;51.174;4.456;2022-08-21T15:24:42;29.30;71.40
25918;DHT22;13899;51.174;4.456;2022-08-21T15:27:09;29.30;72.60
25918;DHT22;13899;51.174;4.456;2022-08-21T15:29:36;29.20;74.30
25918;DHT22;13899;51.174;4.456;2022-08-21T15:32:19;29.40;75.00
25918;DHT22;13899;51.174;4.456;2022-08-21T15:34:47;29.30;71.80
25918;DHT22;13899;51.174;4.456;2022-08-21T15:37:13;29.10;74.00
25918;DHT22;13899;51.174;4.456;2022-08-21T15:39:38;29.00;74.60
25918;DHT22;13899;51.174;4.456;2022-08-21T15:42:04;28.90;75.60
25918;DHT22;13899;51.174;4.456;2022-08-21T15:44:30;28.80;76.50
25918;DHT22;13899;51.174;4.456;2022-08-21T15:46:56;28.80;76.00
25918;DHT22;13899;51.174;4.456;2022-08-21T15:49:22;28.60;76.30
25918;DHT22;13899;51.174;4.456;2022-08-21T15:51:48;28.60;78.20
25918;DHT22;13899;51.174;4.456;2022-08-21T15:54:14;28.30;77.90
25918;DHT22;13899;51.174;4.456;2022-08-21T15:56:42;28.40;76.00
25918;DHT22;13899;51.174;4.456;2022-08-21T15:59:13;28.30;74.30
25918;DHT22;13899;51.174;4.456;2022-08-21T16:01:39;28.30;75.60
25918;DHT22;13899;51.174;4.456;2022-08-21T16:04:05;28.20;76.90
25918;DHT22;13899;51.174;4.456;2022-08-21T16:06:31;28.20;76.80
25918;DHT22;13899;51.174;4.456;2022-08-21T16:08:58;28.00;79.20
25918;DHT22;13899;51.174;4.456;2022-08-21T16:11:24;28.00;77.70
25918;DHT22;13899;51.174;4.456;2022-08-21T16:13:50;27.70;79.00
25918;DHT22;13899;51.174;4.456;2022-08-21T16:16:19;27.20;80.90
25918;DHT22;13899;51.174;4.456;2022-08-21T16:18:46;27.00;82.10
25918;DHT22;13899;51.174;4.456;2022-08-21T16:21:12;26.90;83.80
25918;DHT22;13899;51.174;4.456;2022-08-21T16:23:38;27.00;82.90
25918;DHT22;13899;51.174;4.456;2022-08-21T16:26:06;26.80;84.10
25918;DHT22;13899;51.174;4.456;2022-08-21T16:28:34;26.70;84.60
25918;DHT22;13899;51.174;4.456;2022-08-21T16:31:01;26.80;85.00
25918;DHT22;13899;51.174;4.456;2022-08-21T16:33:34;26.80;87.50
25918;DHT22;13899;51.174;4.456;2022-08-21T16:36:01;26.90;87.00
25918;DHT22;13899;51.174;4.456;2022-08-21T16:38:28;26.90;87.10
25918;DHT22;13899;51.174;4.456;2022-08-21T16:40:54;26.80;88.60
25918;DHT22;13899;51.174;4.456;2022-08-21T16:43:26;27.00;88.50
25918;DHT22;13899;51.174;4.456;2022-08-21T16:45:53;27.00;88.70
25918;DHT22;13899;51.174;4.456;2022-08-21T16:48:19;27.00;90.40
25918;DHT22;13899;51.174;4.456;2022-08-21T16:50:45;27.10;90.50
25918;DHT22;13899;51.174;4.456;2022-08-21T16:53:10;27.00;90.20
25918;DHT22;13899;51.174;4.456;2022-08-21T16:55:37;26.90;90.00
25918;DHT22;13899;51.174;4.456;2022-08-21T16:58:12;27.00;90.00
25918;DHT22;13899;51.174;4.456;2022-08-21T17:00:39;27.00;90.50
25918;DHT22;13899;51.174;4.456;2022-08-21T17:03:04;27.00;90.70
25918;DHT22;13899;51.174;4.456;2022-08-21T17:05:30;27.00;90.30
25918;DHT22;13899;51.174;4.456;2022-08-21T17:07:56;26.80;91.00
25918;DHT22;13899;51.174;4.456;2022-08-21T17:10:21;26.90;91.80
25918;DHT22;13899;51.174;4.456;2022-08-21T17:12:52;27.00;91.30
25918;DHT22;13899;51.174;4.456;2022-08-21T17:15:33;27.00;92.00
25918;DHT22;13899;51.174;4.456;2022-08-21T17:17:59;27.00;92.30
25918;DHT22;13899;51.174;4.456;2022-08-21T17:20:26;26.80;92.90
25918;DHT22;13899;51.174;4.456;2022-08-21T17:22:52;26.80;92.90
25918;DHT22;13899;51.174;4.456;2022-08-21T17:25:18;26.60;93.00
25918;DHT22;13899;51.174;4.456;2022-08-21T17:27:47;26.60;93.80
25918;DHT22;13899;51.174;4.456;2022-08-21T17:30:14;26.60;95.00
25918;DHT22;13899;51.174;4.456;2022-08-21T17:32:41;26.60;93.50
25918;DHT22;13899;51.174;4.456;2022-08-21T17:35:07;26.50;93.90
25918;DHT22;13899;51.174;4.456;2022-08-21T17:37:33;26.40;94.10
25918;DHT22;13899;51.174;4.456;2022-08-21T17:39:59;26.50;93.90
25918;DHT22;13899;51.174;4.456;2022-08-21T17:42:24;26.10;95.40
25918;DHT22;13899;51.174;4.456;2022-08-21T17:44:50;25.90;96.40
25918;DHT22;13899;51.174;4.456;2022-08-21T17:47:16;25.80;97.20
25918;DHT22;13899;51.174;4.456;2022-08-21T17:49:42;25.80;97.50
25918;DHT22;13899;51.174;4.456;2022-08-21T17:52:08;25.60;97.00
25918;DHT22;13899;51.174;4.456;2022-08-21T17:54:35;25.50;97.40
25918;DHT22;13899;51.174;4.456;2022-08-21T17:57:05;25.50;99.00
25918;DHT22;13899;51.174;4.456;2022-08-21T17:59:31;25.50;99.20
25918;DHT22;13899;51.174;4.456;2022-08-21T18:01:57;25.60;99.30
25918;DHT22;13899;51.174;4.456;2022-08-21T18:04:27;25.50;99.90
25918;DHT22;13899;51.174;4.456;2022-08-21T18:06:53;25.50;99.90
25918;DHT22;13899;51.174;4.456;2022-08-21T18:09:19;25.50;99.90
25918;DHT22;13899;51.174;4.456;2022-08-21T18:11:48;25.60;99.90
25918;DHT22;13899;51.174;4.456;2022-08-21T18:14:14;25.50;99.90
25918;DHT22;13899;51.174;4.456;2022-08-21T18:16:40;25.40;99.90
25918;DHT22;13899;51.174;4.456;2022-08-21T18:19:11;25.20;99.90
25918;DHT22;13899;51.174;4.456;2022-08-21T18:21:39;25.10;99.90
25918;DHT22;13899;51.174;4.456;2022-08-21T18:24:06;25.00;99.90
25918;DHT22;13899;51.174;4.456;2022-08-21T18:26:35;24.90;99.90
25918;DHT22;13899;51.174;4.456;2022-08-21T18:29:04;24.60;99.90